Time;durP1;ratioP1;P1;durP2;ratioP2;P2;SDS_P1;SDS_P2;PMS_P1;PMS_P2;Temp;Humidity;BMP_temperature;BMP_pressure;BME280_temperature;BME280_humidity;BME280_pressure;Samples;Min_cycle;Max_cycle;Signal;HPM_P1;HPM_P2
2022/05/30 00:02:14;;;;;;;9.63;1.42;;;;;;;;;;6181076;23;20104;-64
2022/05/30 00:04:41;;;;;;;9.05;1.80;;;;;;;;;;6173449;23;20021;-66
2022/05/30 00:07:08;;;;;;;10.77;1.85;;;;;;;;;;6180821;23;20156;-65
2022/05/30 00:09:34;;;;;;;9.20;1.55;;;;;;;;;;6165254;23;20107;-66
2022/05/30 00:12:01;;;;;;;5.68;1.40;;;;;;;;;;6179566;23;20051;-66
2022/05/30 00:14:27;;;;;;;8.43;1.67;;;;;;;;;;6172637;23;20104;-66
2022/05/30 00:16:55;;;;;;;8.02;1.92;;;;;;;;;;6182904;23;20075;-65
2022/05/30 00:19:21;;;;;;;7.63;1.70;;;;;;;;;;6174957;23;20104;-65
2022/05/30 00:21:47;;;;;;;8.95;1.60;;;;;;;;;;6176815;23;20017;-65
2022/05/30 00:24:14;;;;;;;6.07;2.40;;;;;;;;;;6176735;23;20104;-65
2022/05/30 00:26:40;;;;;;;9.80;1.63;;;;;;;;;;6174874;23;20104;-65
2022/05/30 00:29:06;;;;;;;7.72;1.60;;;;;;;;;;6182007;23;20100;-65
2022/05/30 00:31:35;;;;;;;11.38;1.50;;;;;;;;;;6174687;23;20103;-65
2022/05/30 00:34:01;;;;;;;8.68;1.80;;;;;;;;;;6183475;23;20059;-66
2022/05/30 00:36:28;;;;;;;9.73;1.85;;;;;;;;;;6172853;23;20052;-66
2022/05/30 00:38:55;;;;;;;10.88;2.22;;;;;;;;;;6183150;23;20466;-65
2022/05/30 00:41:22;;;;;;;8.52;2.10;;;;;;;;;;6182190;23;20052;-65
2022/05/30 00:43:48;;;;;;;7.43;1.50;;;;;;;;;;6174515;23;20509;-66
2022/05/30 00:46:18;;;;;;;7.40;1.63;;;;;;;;;;6177053;23;20024;-65
2022/05/30 00:48:56;;;;;;;8.18;1.98;;;;;;;;;;6168350;23;20112;-65
2022/05/30 00:51:26;;;;;;;8.35;1.77;;;;;;;;;;6182073;23;20031;-65
2022/05/30 00:53:54;;;;;;;5.35;1.60;;;;;;;;;;6175411;23;20025;-66
2022/05/30 00:56:22;;;;;;;6.38;1.73;;;;;;;;;;6182686;23;20021;-66
2022/05/30 00:58:49;;;;;;;7.72;1.73;;;;;;;;;;6174410;23;20017;-66
2022/05/30 01:01:16;;;;;;;7.97;2.27;;;;;;;;;;6176265;23;20048;-65
2022/05/30 01:06:39;;;;;;;10.18;2.00;;;;;;;;;;6182778;23;20748;-65
2022/05/30 01:09:11;;;;;;;6.68;1.90;;;;;;;;;;6182893;23;20021;-66
2022/05/30 01:11:47;;;;;;;10.00;1.92;;;;;;;;;;6174095;23;20108;-66
2022/05/30 01:14:14;;;;;;;6.78;1.60;;;;;;;;;;6176652;23;20099;-66
2022/05/30 01:16:40;;;;;;;7.43;2.05;;;;;;;;;;6169408;23;20108;-65
2022/05/30 01:19:14;;;;;;;7.22;1.75;;;;;;;;;;6181419;23;20052;-65
2022/05/30 01:21:43;;;;;;;8.88;2.03;;;;;;;;;;6175117;23;20021;-65
2022/05/30 01:24:14;;;;;;;7.30;1.85;;;;;;;;;;6182571;23;20129;-65
2022/05/30 01:26:52;;;;;;;6.53;2.55;;;;;;;;;;6173838;23;20168;-65
2022/05/30 01:29:24;;;;;;;7.63;1.90;;;;;;;;;;6174297;23;20117;-66
2022/05/30 01:31:53;;;;;;;9.98;2.05;;;;;;;;;;6172454;23;20023;-66
2022/05/30 01:34:23;;;;;;;8.82;2.05;;;;;;;;;;6181737;23;20071;-66
2022/05/30 01:36:50;;;;;;;8.00;2.08;;;;;;;;;;6181764;23;20053;-65
2022/05/30 01:39:16;;;;;;;10.68;2.75;;;;;;;;;;6174161;23;20470;-65
2022/05/30 01:41:43;;;;;;;12.88;2.90;;;;;;;;;;6179717;23;20698;-66
2022/05/30 01:44:09;;;;;;;6.22;2.38;;;;;;;;;;6168463;23;20017;-65
2022/05/30 01:46:36;;;;;;;10.95;3.13;;;;;;;;;;6182273;23;20027;-65
2022/05/30 01:49:03;;;;;;;9.02;3.17;;;;;;;;;;6175602;23;20362;-65
2022/05/30 01:51:29;;;;;;;12.82;4.00;;;;;;;;;;6181761;23;20055;-65
2022/05/30 01:53:56;;;;;;;7.93;3.90;;;;;;;;;;6177374;23;20056;-65
2022/05/30 01:56:22;;;;;;;9.20;3.83;;;;;;;;;;6169164;23;20025;-65
2022/05/30 01:58:48;;;;;;;10.45;4.38;;;;;;;;;;6181177;23;20025;-65
2022/05/30 02:01:18;;;;;;;12.13;4.50;;;;;;;;;;6174815;23;20112;-65
2022/05/30 02:03:46;;;;;;;10.68;4.40;;;;;;;;;;6182503;23;20024;-65
2022/05/30 02:06:12;;;;;;;13.10;4.75;;;;;;;;;;6175213;23;20409;-65
2022/05/30 02:08:39;;;;;;;11.30;4.22;;;;;;;;;;6176405;23;20386;-66
2022/05/30 02:11:08;;;;;;;13.75;4.60;;;;;;;;;;6169627;23;20454;-65
2022/05/30 02:13:35;;;;;;;11.10;4.20;;;;;;;;;;6181982;23;20061;-65
2022/05/30 02:18:48;;;;;;;13.55;4.40;;;;;;;;;;6181606;23;20028;-66
2022/05/30 02:21:15;;;;;;;7.50;3.67;;;;;;;;;;6181925;23;20345;-65
2022/05/30 02:23:42;;;;;;;10.52;3.97;;;;;;;;;;6168707;23;20096;-65
2022/05/30 02:26:08;;;;;;;11.43;3.10;;;;;;;;;;6177001;23;20052;-64
2022/05/30 02:28:34;;;;;;;12.60;3.50;;;;;;;;;;6173637;23;20479;-66
2022/05/30 02:31:01;;;;;;;11.30;2.83;;;;;;;;;;6182188;23;20057;-65
2022/05/30 02:39:00;;;;;;;8.43;2.00;;;;;;;;;;6167703;23;20482;-65
2022/05/30 02:41:27;;;;;;;8.07;2.80;;;;;;;;;;6180935;23;20103;-66
2022/05/30 02:43:53;;;;;;;9.68;2.50;;;;;;;;;;6181745;23;20023;-64
2022/05/30 02:46:19;;;;;;;8.10;2.30;;;;;;;;;;6173011;23;20060;-65
2022/05/30 02:48:47;;;;;;;6.32;2.20;;;;;;;;;;6181731;23;20025;-66
2022/05/30 02:51:13;;;;;;;11.15;2.13;;;;;;;;;;6167323;23;20057;-65
2022/05/30 02:53:40;;;;;;;10.48;2.35;;;;;;;;;;6175516;23;20021;-65
2022/05/30 02:56:13;;;;;;;7.43;2.22;;;;;;;;;;6174243;23;20402;-64
2022/05/30 02:58:39;;;;;;;4.97;1.80;;;;;;;;;;6182688;23;20312;-65
2022/05/30 03:01:06;;;;;;;6.03;1.95;;;;;;;;;;6176103;23;20108;-66
2022/05/30 03:03:32;;;;;;;7.55;2.28;;;;;;;;;;6182441;23;20409;-65
2022/05/30 03:05:59;;;;;;;7.32;2.70;;;;;;;;;;6173251;23;20060;-65
2022/05/30 03:08:25;;;;;;;9.13;2.20;;;;;;;;;;6170029;23;20101;-65
2022/05/30 03:10:51;;;;;;;6.82;2.53;;;;;;;;;;6182269;23;20027;-65
2022/05/30 03:13:18;;;;;;;8.13;2.15;;;;;;;;;;6174085;23;20023;-65
2022/05/30 03:15:44;;;;;;;6.55;2.20;;;;;;;;;;6182196;23;20097;-64
2022/05/30 03:18:10;;;;;;;9.57;2.47;;;;;;;;;;6168795;23;20097;-64
2022/05/30 03:20:37;;;;;;;6.18;2.22;;;;;;;;;;6174862;23;20372;-66
2022/05/30 03:23:04;;;;;;;6.22;2.13;;;;;;;;;;6178048;23;20017;-64
2022/05/30 03:25:30;;;;;;;5.03;2.22;;;;;;;;;;6179668;23;20052;-66
2022/05/30 03:27:56;;;;;;;4.65;2.20;;;;;;;;;;6182082;23;20064;-64
2022/05/30 03:30:23;;;;;;;9.50;2.30;;;;;;;;;;6171455;23;20107;-64
2022/05/30 03:32:49;;;;;;;11.43;2.50;;;;;;;;;;6175853;23;20144;-66
2022/05/30 03:35:16;;;;;;;5.72;1.98;;;;;;;;;;6166784;23;20067;-64
2022/05/30 03:37:44;;;;;;;7.03;2.50;;;;;;;;;;6181043;23;20099;-64
2022/05/30 03:40:11;;;;;;;7.28;2.38;;;;;;;;;;6174447;23;20021;-64
2022/05/30 03:42:38;;;;;;;5.38;2.05;;;;;;;;;;6154423;23;20109;-65
2022/05/30 03:45:05;;;;;;;6.55;2.30;;;;;;;;;;6181705;23;20100;-64
2022/05/30 03:47:36;;;;;;;6.63;2.10;;;;;;;;;;6168401;23;20510;-65
2022/05/30 03:50:02;;;;;;;12.30;2.33;;;;;;;;;;6177965;23;20415;-64
2022/05/30 03:52:29;;;;;;;5.22;2.67;;;;;;;;;;6174014;23;20103;-65
2022/05/30 03:54:56;;;;;;;6.85;2.60;;;;;;;;;;6183503;23;20062;-63
2022/05/30 03:57:22;;;;;;;6.18;2.13;;;;;;;;;;6175904;23;20485;-65
2022/05/30 03:59:48;;;;;;;9.95;2.47;;;;;;;;;;6180747;23;20084;-64
2022/05/30 04:02:15;;;;;;;5.35;2.35;;;;;;;;;;6174460;23;20048;-64
2022/05/30 04:04:41;;;;;;;7.15;2.60;;;;;;;;;;6175815;23;20020;-65
2022/05/30 04:07:07;;;;;;;7.88;2.80;;;;;;;;;;6182838;23;20027;-64
2022/05/30 04:09:34;;;;;;;6.93;2.40;;;;;;;;;;6176306;23;20017;-64
2022/05/30 04:12:00;;;;;;;8.60;2.53;;;;;;;;;;6183540;23;20091;-65
2022/05/30 04:14:26;;;;;;;7.95;2.70;;;;;;;;;;6169785;23;20096;-64
2022/05/30 04:16:53;;;;;;;6.25;2.30;;;;;;;;;;6177080;23;20057;-64
2022/05/30 04:19:19;;;;;;;10.63;2.63;;;;;;;;;;6175282;23;20056;-64
2022/05/30 04:21:45;;;;;;;9.18;3.05;;;;;;;;;;6182596;23;20108;-66
2022/05/30 04:24:12;;;;;;;6.80;2.08;;;;;;;;;;6182995;23;20017;-65
2022/05/30 04:26:39;;;;;;;6.95;2.15;;;;;;;;;;6175135;23;20017;-64
2022/05/30 04:29:07;;;;;;;6.10;2.20;;;;;;;;;;6177246;23;20112;-64
2022/05/30 04:31:33;;;;;;;5.70;2.15;;;;;;;;;;6168471;23;20052;-64
2022/05/30 04:34:00;;;;;;;7.82;2.50;;;;;;;;;;6183393;23;20398;-65
2022/05/30 04:36:27;;;;;;;6.22;2.10;;;;;;;;;;6174840;23;20064;-65
2022/05/30 04:38:53;;;;;;;7.60;2.13;;;;;;;;;;6183188;23;20108;-65
2022/05/30 04:41:19;;;;;;;7.07;1.98;;;;;;;;;;6174714;23;20354;-65
2022/05/30 04:43:46;;;;;;;9.13;2.30;;;;;;;;;;6176553;23;20021;-65
2022/05/30 04:46:13;;;;;;;4.82;2.15;;;;;;;;;;6182586;23;20021;-66
2022/05/30 04:48:41;;;;;;;7.78;2.10;;;;;;;;;;6175606;23;20364;-65
2022/05/30 04:51:08;;;;;;;5.63;1.73;;;;;;;;;;6183093;23;20029;-64
2022/05/30 04:53:35;;;;;;;8.15;1.92;;;;;;;;;;6175793;23;20426;-64
2022/05/30 04:56:01;;;;;;;7.05;1.75;;;;;;;;;;6173338;23;20052;-63
2022/05/30 04:58:33;;;;;;;10.23;1.80;;;;;;;;;;6172043;23;20097;-65
2022/05/30 05:01:01;;;;;;;4.78;1.60;;;;;;;;;;6182414;23;20021;-65
2022/05/30 05:03:28;;;;;;;4.70;1.70;;;;;;;;;;6177137;23;20345;-65
2022/05/30 05:06:06;;;;;;;4.95;1.67;;;;;;;;;;6180924;23;20017;-65
2022/05/30 05:08:37;;;;;;;4.88;1.63;;;;;;;;;;6177075;23;20410;-66
2022/05/30 05:11:12;;;;;;;6.35;1.83;;;;;;;;;;6167591;23;20099;-65
2022/05/30 05:13:39;;;;;;;5.75;1.80;;;;;;;;;;6182262;23;20397;-65
2022/05/30 05:16:06;;;;;;;5.60;1.60;;;;;;;;;;6173548;23;20032;-64
2022/05/30 05:18:32;;;;;;;4.70;1.45;;;;;;;;;;6182513;23;20100;-65
2022/05/30 05:20:59;;;;;;;3.65;1.42;;;;;;;;;;6175612;23;20107;-65
2022/05/30 05:23:25;;;;;;;4.70;1.20;;;;;;;;;;6176313;23;20025;-65
2022/05/30 05:25:51;;;;;;;10.93;1.60;;;;;;;;;;6169642;23;20569;-64
2022/05/30 05:28:18;;;;;;;7.32;1.65;;;;;;;;;;6180586;23;20418;-65
2022/05/30 05:30:44;;;;;;;5.40;1.60;;;;;;;;;;6182551;23;20513;-65
2022/05/30 05:33:11;;;;;;;4.20;1.70;;;;;;;;;;6174699;23;20532;-66
2022/05/30 05:35:41;;;;;;;3.35;1.50;;;;;;;;;;6182761;23;20025;-65
2022/05/30 05:38:08;;;;;;;3.97;1.42;;;;;;;;;;6164301;23;20335;-65
2022/05/30 05:40:40;;;;;;;7.20;1.40;;;;;;;;;;6181070;23;20063;-65
2022/05/30 05:43:07;;;;;;;4.53;1.40;;;;;;;;;;6173647;23;20039;-64
2022/05/30 05:45:34;;;;;;;3.63;1.38;;;;;;;;;;6182754;23;20071;-65
2022/05/30 05:48:01;;;;;;;5.55;1.35;;;;;;;;;;6179071;23;20185;-65
2022/05/30 05:50:27;;;;;;;4.18;1.33;;;;;;;;;;6172158;23;20020;-65
2022/05/30 05:52:54;;;;;;;4.25;1.38;;;;;;;;;;6176040;23;20027;-65
2022/05/30 05:55:21;;;;;;;7.70;1.40;;;;;;;;;;6173669;23;20056;-65
2022/05/30 05:57:47;;;;;;;6.03;1.23;;;;;;;;;;6181943;23;20075;-65
2022/05/30 06:00:14;;;;;;;6.35;1.67;;;;;;;;;;6172087;23;20099;-65
2022/05/30 06:02:41;;;;;;;8.82;1.50;;;;;;;;;;6181751;23;20063;-65
2022/05/30 06:05:11;;;;;;;4.03;1.40;;;;;;;;;;6168705;23;20021;-65
2022/05/30 06:07:38;;;;;;;5.35;1.60;;;;;;;;;;6175987;23;20099;-65
2022/05/30 06:10:05;;;;;;;3.78;1.40;;;;;;;;;;6180076;23;20104;-66
2022/05/30 06:12:36;;;;;;;5.43;1.20;;;;;;;;;;6177723;23;20096;-65
2022/05/30 06:15:04;;;;;;;4.32;1.25;;;;;;;;;;6182703;23;20067;-65
2022/05/30 06:17:32;;;;;;;4.50;1.38;;;;;;;;;;6171601;23;20064;-64
2022/05/30 06:19:59;;;;;;;5.25;1.55;;;;;;;;;;6171806;23;20035;-65
2022/05/30 06:22:25;;;;;;;6.82;1.95;;;;;;;;;;6173844;23;20103;-65
2022/05/30 06:24:52;;;;;;;3.92;1.30;;;;;;;;;;6155828;23;20100;-65
2022/05/30 06:27:20;;;;;;;3.90;1.10;;;;;;;;;;6173708;23;20391;-65
2022/05/30 06:29:47;;;;;;;3.78;1.20;;;;;;;;;;6181613;23;20057;-65
2022/05/30 06:32:13;;;;;;;2.30;0.90;;;;;;;;;;6175623;23;20056;-65
2022/05/30 06:34:40;;;;;;;4.25;1.10;;;;;;;;;;6168532;23;20101;-65
2022/05/30 06:37:08;;;;;;;4.07;0.95;;;;;;;;;;6180350;23;20017;-65
2022/05/30 06:39:34;;;;;;;4.25;1.10;;;;;;;;;;6172123;23;20025;-65
2022/05/30 06:42:01;;;;;;;4.68;1.00;;;;;;;;;;6181816;23;20096;-65
2022/05/30 06:44:27;;;;;;;4.00;0.80;;;;;;;;;;6172177;23;20028;-64
2022/05/30 06:46:53;;;;;;;4.60;1.10;;;;;;;;;;6174684;23;20029;-65
2022/05/30 06:49:20;;;;;;;2.95;1.00;;;;;;;;;;6169312;23;20105;-64
2022/05/30 06:51:46;;;;;;;4.68;1.13;;;;;;;;;;6181041;23;20064;-65
2022/05/30 06:54:12;;;;;;;4.38;1.05;;;;;;;;;;6181133;23;20095;-65
2022/05/30 06:58:11;;;;;;;1.95;0.65;;;;;;;;;;6173912;23;20021;-64
2022/05/30 06:59:27;;;;;;;7.53;0.73;;;;;;;;;;6175621;23;20100;-65
2022/05/30 07:01:53;;;;;;;4.43;1.10;;;;;;;;;;6167192;23;20361;-66
2022/05/30 07:04:19;;;;;;;3.88;0.70;;;;;;;;;;6180701;23;20100;-65
2022/05/30 07:06:46;;;;;;;4.25;0.70;;;;;;;;;;6174178;23;20060;-65
2022/05/30 07:09:12;;;;;;;1.15;0.45;;;;;;;;;;6155295;23;20071;-65
2022/05/30 07:11:39;;;;;;;2.67;0.65;;;;;;;;;;6172726;23;20060;-65
2022/05/30 07:14:10;;;;;;;5.40;0.73;;;;;;;;;;6175475;23;20021;-64
2022/05/30 07:16:36;;;;;;;7.22;0.65;;;;;;;;;;6175808;23;20017;-65
2022/05/30 07:19:03;;;;;;;2.45;0.70;;;;;;;;;;6174194;23;20017;-65
2022/05/30 07:21:29;;;;;;;4.50;0.75;;;;;;;;;;6180911;23;20053;-65
2022/05/30 07:23:55;;;;;;;2.15;0.50;;;;;;;;;;6173376;23;20056;-65
2022/05/30 07:26:22;;;;;;;2.92;0.70;;;;;;;;;;6182760;23;20063;-66
2022/05/30 07:28:51;;;;;;;5.00;0.70;;;;;;;;;;6166230;23;20099;-65
2022/05/30 07:31:19;;;;;;;3.17;0.70;;;;;;;;;;6181870;23;20033;-65
2022/05/30 07:33:48;;;;;;;1.55;0.60;;;;;;;;;;6176748;23;20021;-64
2022/05/30 07:36:16;;;;;;;1.83;0.60;;;;;;;;;;6156626;23;20060;-66
2022/05/30 07:38:43;;;;;;;3.83;0.90;;;;;;;;;;6182860;23;20025;-66
2022/05/30 07:41:09;;;;;;;5.88;0.95;;;;;;;;;;6169545;23;20052;-65
2022/05/30 07:43:36;;;;;;;1.85;0.50;;;;;;;;;;6177373;23;20017;-65
2022/05/30 07:46:05;;;;;;;4.22;0.60;;;;;;;;;;6175784;23;20638;-65
2022/05/30 07:48:31;;;;;;;6.18;0.70;;;;;;;;;;6183793;23;20025;-65
2022/05/30 07:50:58;;;;;;;3.30;0.77;;;;;;;;;;6175543;23;20020;-65
2022/05/30 07:53:26;;;;;;;1.80;0.70;;;;;;;;;;6183196;23;20076;-65
2022/05/30 07:55:52;;;;;;;4.30;0.90;;;;;;;;;;6171915;23;20108;-65
2022/05/30 07:58:18;;;;;;;3.58;0.75;;;;;;;;;;6177192;23;20052;-65
2022/05/30 08:00:48;;;;;;;3.45;0.70;;;;;;;;;;6183165;23;20023;-66
2022/05/30 08:03:16;;;;;;;3.60;1.00;;;;;;;;;;6176334;23;20017;-64
2022/05/30 08:05:43;;;;;;;4.60;1.15;;;;;;;;;;6183330;23;20353;-65
2022/05/30 08:08:09;;;;;;;7.28;1.20;;;;;;;;;;6175709;23;20021;-64
2022/05/30 08:10:36;;;;;;;4.53;0.80;;;;;;;;;;6175266;23;20271;-64
2022/05/30 08:13:03;;;;;;;3.13;0.85;;;;;;;;;;6174057;23;20068;-64
2022/05/30 08:15:30;;;;;;;5.82;0.93;;;;;;;;;;6183618;23;20027;-65
2022/05/30 08:17:57;;;;;;;4.30;0.98;;;;;;;;;;6180112;23;20450;-64
2022/05/30 08:20:25;;;;;;;8.65;1.02;;;;;;;;;;6178799;23;20107;-65
2022/05/30 08:22:51;;;;;;;3.30;0.73;;;;;;;;;;6177652;23;20064;-65
2022/05/30 08:25:18;;;;;;;5.70;0.90;;;;;;;;;;6170082;23;20021;-65
2022/05/30 08:27:46;;;;;;;4.97;0.95;;;;;;;;;;6182940;23;20079;-65
2022/05/30 08:30:13;;;;;;;3.88;0.93;;;;;;;;;;6174762;23;20032;-66
2022/05/30 08:32:41;;;;;;;2.60;0.63;;;;;;;;;;6183311;23;20021;-66
2022/05/30 08:35:08;;;;;;;3.45;0.85;;;;;;;;;;6175351;23;20025;-65
2022/05/30 08:37:37;;;;;;;2.63;0.93;;;;;;;;;;6177077;23;20055;-66
2022/05/30 08:42:52;;;;;;;3.85;0.80;;;;;;;;;;6182500;23;20045;-65
2022/05/30 08:45:19;;;;;;;2.25;0.80;;;;;;;;;;6182898;23;20461;-65
2022/05/30 08:47:48;;;;;;;3.30;0.50;;;;;;;;;;6175070;23;20091;-66
2022/05/30 08:50:14;;;;;;;;;;;;;;;;;;6181644;23;20064;-65
2022/05/30 08:52:57;;;;;;;2.45;0.70;;;;;;;;;;6164749;23;19995;-65
2022/05/30 08:55:28;;;;;;;4.95;0.65;;;;;;;;;;6182193;23;20081;-65
2022/05/30 08:57:57;;;;;;;2.22;0.70;;;;;;;;;;6174956;23;20021;-65
2022/05/30 09:00:28;;;;;;;4.40;1.20;;;;;;;;;;6182785;23;20055;-65
2022/05/30 09:03:07;;;;;;;4.47;0.98;;;;;;;;;;6174621;23;20517;-65
2022/05/30 09:05:36;;;;;;;5.28;1.33;;;;;;;;;;6177346;23;20481;-67
2022/05/30 09:08:17;;;;;;;5.88;0.90;;;;;;;;;;6170135;23;20323;-65
2022/05/30 09:10:50;;;;;;;3.95;0.90;;;;;;;;;;6182603;23;20025;-65
2022/05/30 09:13:46;;;;;;;4.35;0.70;;;;;;;;;;6182375;23;20100;-65
2022/05/30 09:16:30;;;;;;;3.22;1.00;;;;;;;;;;6163367;23;20025;-65
2022/05/30 09:18:58;;;;;;;3.38;0.80;;;;;;;;;;6173659;23;20017;-65
2022/05/30 09:21:28;;;;;;;3.22;0.80;;;;;;;;;;6174037;23;20025;-65
2022/05/30 09:23:54;;;;;;;3.60;0.77;;;;;;;;;;6182519;23;20100;-65
2022/05/30 09:26:25;;;;;;;2.65;0.80;;;;;;;;;;6174980;23;20099;-65
2022/05/30 09:28:52;;;;;;;5.15;1.02;;;;;;;;;;6182442;23;20021;-65
2022/05/30 09:31:42;;;;;;;2.75;0.70;;;;;;;;;;6175665;23;20104;-65
2022/05/30 09:34:27;;;;;;;3.65;0.75;;;;;;;;;;6173948;23;20485;-65
2022/05/30 09:36:54;;;;;;;2.25;0.60;;;;;;;;;;6175093;23;20477;-65
2022/05/30 09:39:20;;;;;;;4.20;0.98;;;;;;;;;;6182720;23;20104;-64
2022/05/30 09:41:49;;;;;;;4.85;0.77;;;;;;;;;;6176553;23;20814;-64
2022/05/30 09:44:22;;;;;;;3.00;0.82;;;;;;;;;;6182208;23;20028;-65
2022/05/30 09:46:53;;;;;;;4.72;1.00;;;;;;;;;;6170331;23;20028;-64
2022/05/30 09:49:21;;;;;;;2.58;0.80;;;;;;;;;;6176925;23;20021;-66
2022/05/30 09:51:55;;;;;;;3.13;0.95;;;;;;;;;;6183518;23;20059;-65
2022/05/30 09:54:24;;;;;;;2.05;0.80;;;;;;;;;;6175442;23;20538;-65
2022/05/30 09:57:09;;;;;;;3.65;0.90;;;;;;;;;;6157780;23;20109;-65
2022/05/30 09:59:40;;;;;;;1.90;0.85;;;;;;;;;;6175106;23;20056;-65
2022/05/30 10:02:19;;;;;;;3.33;0.73;;;;;;;;;;6175109;23;20017;-66
2022/05/30 10:04:46;;;;;;;4.20;0.73;;;;;;;;;;6175951;23;20028;-65
2022/05/30 10:07:20;;;;;;;5.30;0.90;;;;;;;;;;6182624;23;20021;-66
2022/05/30 10:09:56;;;;;;;2.45;0.93;;;;;;;;;;6176027;23;20100;-66
2022/05/30 10:12:35;;;;;;;3.47;0.90;;;;;;;;;;6183016;23;20576;-67
2022/05/30 10:15:37;;;;;;;3.10;0.88;;;;;;;;;;6170436;23;20100;-66
2022/05/30 10:18:12;;;;;;;3.33;1.00;;;;;;;;;;6096256;23;20061;-66
2022/05/30 10:21:00;;;;;;;5.15;0.82;;;;;;;;;;6112635;23;20061;-67
2022/05/30 10:29:54;;;;;;;2.58;0.90;;;;;;;;;;6112903;23;20434;-66
2022/05/30 10:32:32;;;;;;;1.77;0.73;;;;;;;;;;6110709;23;20355;-66
2022/05/30 10:35:11;;;;;;;3.00;1.00;;;;;;;;;;6119434;23;20109;-66
2022/05/30 10:38:00;;;;;;;2.92;0.70;;;;;;;;;;6111904;23;20403;-66
2022/05/30 10:40:33;;;;;;;3.65;0.90;;;;;;;;;;6111966;23;20032;-67
2022/05/30 10:43:05;;;;;;;6.75;1.00;;;;;;;;;;6106884;23;20051;-66
2022/05/30 10:45:46;;;;;;;4.68;1.02;;;;;;;;;;6113847;23;20113;-66
2022/05/30 10:48:18;;;;;;;2.97;0.90;;;;;;;;;;6110709;23;20048;-66
2022/05/30 10:51:04;;;;;;;4.35;0.85;;;;;;;;;;6119363;23;20514;-66
2022/05/30 10:53:34;;;;;;;3.17;0.80;;;;;;;;;;6173656;23;20108;-66
2022/05/30 10:56:04;;;;;;;2.58;0.82;;;;;;;;;;6177360;23;20056;-65
2022/05/30 10:58:33;;;;;;;2.55;0.82;;;;;;;;;;6169354;23;20045;-65
2022/05/30 11:01:03;;;;;;;4.43;1.27;;;;;;;;;;6178436;23;20113;-65
2022/05/30 11:03:32;;;;;;;2.83;0.93;;;;;;;;;;6180975;23;20063;-66
2022/05/30 11:06:10;;;;;;;5.00;1.08;;;;;;;;;;6172275;23;20017;-66
2022/05/30 11:08:43;;;;;;;6.15;1.30;;;;;;;;;;6181589;23;20096;-66
2022/05/30 11:11:16;;;;;;;3.15;1.10;;;;;;;;;;6168004;23;20049;-65
2022/05/30 11:13:50;;;;;;;5.97;1.33;;;;;;;;;;6175411;23;20035;-66
2022/05/30 11:16:20;;;;;;;3.97;1.27;;;;;;;;;;6174472;23;20332;-65
2022/05/30 11:19:07;;;;;;;4.55;1.38;;;;;;;;;;6181310;23;20021;-66
2022/05/30 11:21:46;;;;;;;4.10;0.88;;;;;;;;;;6174447;23;20059;-66
2022/05/30 11:24:14;;;;;;;3.75;1.10;;;;;;;;;;6175615;23;20028;-66
2022/05/30 11:26:49;;;;;;;5.63;1.40;;;;;;;;;;6167344;23;20174;-66
2022/05/30 11:29:34;;;;;;;3.10;1.05;;;;;;;;;;6180280;23;20105;-66
2022/05/30 11:32:03;;;;;;;4.00;1.20;;;;;;;;;;6181705;23;20100;-66
2022/05/30 11:34:36;;;;;;;2.97;1.33;;;;;;;;;;6172853;23;20454;-66
2022/05/30 11:37:12;;;;;;;7.10;1.40;;;;;;;;;;6181794;23;20017;-66
2022/05/30 11:39:53;;;;;;;4.30;1.35;;;;;;;;;;6162798;23;20522;-66
2022/05/30 11:42:38;;;;;;;8.68;1.10;;;;;;;;;;6180915;23;20115;-66
2022/05/30 11:45:39;;;;;;;3.75;1.00;;;;;;;;;;6173895;23;20099;-66
2022/05/30 11:48:12;;;;;;;2.60;1.10;;;;;;;;;;6182377;23;20469;-66
2022/05/30 11:50:44;;;;;;;3.45;1.17;;;;;;;;;;6173809;23;20053;-67
2022/05/30 11:53:26;;;;;;;3.10;1.40;;;;;;;;;;6174923;23;20096;-66
2022/05/30 11:55:52;;;;;;;5.28;1.40;;;;;;;;;;6167990;23;20017;-66
2022/05/30 11:58:28;;;;;;;4.40;1.48;;;;;;;;;;6181406;23;20489;-66
2022/05/30 12:00:55;;;;;;;5.22;1.30;;;;;;;;;;6173004;23;20556;-66
2022/05/30 12:03:40;;;;;;;4.95;1.20;;;;;;;;;;6180985;23;20462;-66
2022/05/30 12:06:17;;;;;;;3.83;1.30;;;;;;;;;;6167227;23;20025;-66
2022/05/30 12:08:53;;;;;;;3.53;1.02;;;;;;;;;;6174946;23;20407;-66
2022/05/30 12:11:27;;;;;;;3.17;1.40;;;;;;;;;;6181108;23;20071;-66
2022/05/30 12:14:12;;;;;;;2.90;1.10;;;;;;;;;;6174993;23;20028;-65
2022/05/30 12:16:41;;;;;;;4.32;1.20;;;;;;;;;;6183177;23;20060;-65
2022/05/30 12:24:50;;;;;;;3.63;1.17;;;;;;;;;;6174293;23;20532;-66
2022/05/30 12:27:16;;;;;;;5.18;1.80;;;;;;;;;;6183028;23;20017;-66
2022/05/30 12:29:44;;;;;;;4.70;1.55;;;;;;;;;;6174510;23;20025;-65
2022/05/30 12:32:16;;;;;;;4.75;1.40;;;;;;;;;;6156221;23;20025;-67
2022/05/30 12:34:57;;;;;;;3.78;1.42;;;;;;;;;;6169491;23;20025;-66
2022/05/30 12:37:43;;;;;;;3.75;1.25;;;;;;;;;;6176165;23;21136;-66
2022/05/30 12:40:13;;;;;;;4.05;1.50;;;;;;;;;;6174998;23;20063;-66
2022/05/30 12:42:43;;;;;;;6.50;1.30;;;;;;;;;;6183224;23;20055;-67
2022/05/30 12:45:18;;;;;;;2.10;1.08;;;;;;;;;;6173874;23;20061;-66
2022/05/30 12:47:49;;;;;;;3.00;1.27;;;;;;;;;;6178062;23;20029;-66
2022/05/30 12:50:31;;;;;;;2.53;1.30;;;;;;;;;;6173786;23;20105;-66
2022/05/30 12:52:59;;;;;;;8.02;1.75;;;;;;;;;;6182509;23;20017;-66
2022/05/30 12:55:33;;;;;;;3.63;1.17;;;;;;;;;;6183067;23;20442;-66
2022/05/30 12:58:00;;;;;;;5.45;1.40;;;;;;;;;;6174973;23;20021;-66
2022/05/30 13:00:42;;;;;;;3.95;1.20;;;;;;;;;;6180231;23;20099;-66
2022/05/30 13:03:23;;;;;;;3.55;1.30;;;;;;;;;;6141002;23;20199;-66
2022/05/30 13:06:02;;;;;;;3.25;1.27;;;;;;;;;;6181601;23;20025;-66
2022/05/30 13:08:47;;;;;;;5.05;1.58;;;;;;;;;;6174262;23;20028;-66
2022/05/30 13:11:24;;;;;;;4.00;1.25;;;;;;;;;;6182401;23;20518;-66
2022/05/30 13:13:53;;;;;;;5.90;1.50;;;;;;;;;;6175650;23;20071;-66
2022/05/30 13:16:39;;;;;;;4.85;1.30;;;;;;;;;;6174771;23;20025;-66
2022/05/30 13:19:10;;;;;;;5.22;1.40;;;;;;;;;;6173280;23;20071;-66
2022/05/30 13:21:38;;;;;;;3.85;1.48;;;;;;;;;;6182577;23;20103;-66
2022/05/30 13:24:23;;;;;;;3.17;1.30;;;;;;;;;;6175734;23;20108;-66
2022/05/30 13:26:50;;;;;;;5.43;1.42;;;;;;;;;;6182488;23;20043;-65
2022/05/30 13:29:16;;;;;;;7.47;1.50;;;;;;;;;;6168178;23;20017;-65
2022/05/30 13:31:47;;;;;;;7.53;1.60;;;;;;;;;;6175818;23;20104;-65
2022/05/30 13:34:16;;;;;;;5.90;1.58;;;;;;;;;;6181554;23;20108;-65
2022/05/30 13:36:42;;;;;;;5.72;1.48;;;;;;;;;;6173270;23;20150;-66
2022/05/30 13:39:10;;;;;;;6.43;1.55;;;;;;;;;;6181951;23;20409;-66
2022/05/30 13:41:39;;;;;;;5.47;1.50;;;;;;;;;;6173839;23;20052;-66
2022/05/30 13:44:27;;;;;;;6.20;1.58;;;;;;;;;;6174526;23;20407;-66
2022/05/30 13:46:55;;;;;;;4.72;1.40;;;;;;;;;;6171421;23;20025;-66
2022/05/30 13:49:32;;;;;;;5.50;1.58;;;;;;;;;;6182166;23;20021;-65
2022/05/30 13:52:00;;;;;;;3.95;1.50;;;;;;;;;;6174501;23;20028;-66
2022/05/30 13:54:26;;;;;;;3.55;1.30;;;;;;;;;;6182186;23;20103;-66
2022/05/30 13:56:54;;;;;;;4.80;1.42;;;;;;;;;;6172893;23;20100;-67
2022/05/30 13:59:25;;;;;;;3.90;1.50;;;;;;;;;;6172260;23;20099;-66
2022/05/30 14:01:56;;;;;;;4.85;1.63;;;;;;;;;;6181872;23;20107;-66
2022/05/30 14:04:35;;;;;;;4.00;1.50;;;;;;;;;;6174406;23;20108;-66
2022/05/30 14:07:01;;;;;;;3.67;1.35;;;;;;;;;;6183178;23;20028;-66
2022/05/30 14:09:27;;;;;;;2.78;1.20;;;;;;;;;;6173452;23;20073;-66
2022/05/30 14:12:01;;;;;;;2.45;1.30;;;;;;;;;;6176454;23;20551;-67
2022/05/30 14:14:48;;;;;;;2.92;1.25;;;;;;;;;;6173834;23;20017;-65
2022/05/30 14:17:25;;;;;;;4.60;1.50;;;;;;;;;;6181670;23;20021;-66
2022/05/30 14:20:22;;;;;;;4.90;1.43;;;;;;;;;;6174585;23;20021;-65
2022/05/30 14:22:51;;;;;;;3.78;1.40;;;;;;;;;;6145296;23;20558;-66
2022/05/30 14:25:20;;;;;;;7.43;1.38;;;;;;;;;;6168261;23;20055;-67
2022/05/30 14:27:48;;;;;;;5.65;1.40;;;;;;;;;;6181884;23;20017;-67
2022/05/30 14:30:21;;;;;;;7.17;1.30;;;;;;;;;;6174553;23;20092;-66
2022/05/30 14:32:49;;;;;;;4.00;1.30;;;;;;;;;;6181785;23;20270;-66
2022/05/30 14:35:26;;;;;;;4.67;2.40;;;;;;;;;;6182033;23;20032;-66
2022/05/30 14:37:53;;;;;;;7.60;1.97;;;;;;;;;;6167673;23;20021;-66
2022/05/30 14:40:30;;;;;;;4.15;1.50;;;;;;;;;;6176883;23;20059;-66
2022/05/30 14:42:57;;;;;;;8.75;2.20;;;;;;;;;;6174601;23;20100;-67
2022/05/30 14:45:27;;;;;;;5.90;1.80;;;;;;;;;;6181700;23;20048;-66
2022/05/30 14:47:54;;;;;;;5.72;1.98;;;;;;;;;;6174732;23;20021;-67
2022/05/30 14:50:34;;;;;;;6.22;2.20;;;;;;;;;;6177047;23;20099;-66
2022/05/30 14:53:01;;;;;;;4.75;2.08;;;;;;;;;;6166985;23;20067;-66
2022/05/30 14:55:33;;;;;;;5.18;1.85;;;;;;;;;;6180551;23;20100;-66
2022/05/30 14:58:10;;;;;;;5.10;2.10;;;;;;;;;;6172656;23;20032;-65
2022/05/30 15:00:59;;;;;;;7.22;2.35;;;;;;;;;;6181133;23;20017;-66
2022/05/30 15:06:13;;;;;;;4.28;1.92;;;;;;;;;;6173556;23;20025;-66
2022/05/30 15:08:40;;;;;;;7.55;1.70;;;;;;;;;;6181589;23;20399;-66
2022/05/30 15:11:17;;;;;;;5.55;2.03;;;;;;;;;;6174301;23;20024;-66
2022/05/30 15:13:54;;;;;;;6.07;2.15;;;;;;;;;;6182389;23;20025;-66
2022/05/30 15:16:20;;;;;;;3.42;1.73;;;;;;;;;;6170095;23;20464;-68
2022/05/30 15:18:48;;;;;;;6.45;2.17;;;;;;;;;;6173034;23;20025;-66
2022/05/30 15:21:17;;;;;;;3.92;2.00;;;;;;;;;;6173209;23;20024;-66
2022/05/30 15:23:43;;;;;;;5.07;1.80;;;;;;;;;;6182126;23;20100;-67
2022/05/30 15:26:10;;;;;;;6.05;2.00;;;;;;;;;;6173845;23;20394;-67
2022/05/30 15:28:36;;;;;;;7.80;2.90;;;;;;;;;;6180376;23;20056;-66
2022/05/30 15:31:03;;;;;;;4.60;1.92;;;;;;;;;;6175880;23;20107;-66